sensor_id;sensor_type;location;lat;lon;timestamp;temperature;humidity
73643;DHT22;61938;48.652;9.292;2022-12-15T00:02:22;-1.60;99.90
73643;DHT22;61938;48.652;9.292;2022-12-15T00:05:07;-1.60;99.90
73643;DHT22;61938;48.652;9.292;2022-12-15T00:07:51;-1.60;99.90
73643;DHT22;61938;48.652;9.292;2022-12-15T00:10:35;-1.60;99.90
73643;DHT22;61938;48.652;9.292;2022-12-15T00:13:19;-1.60;99.90
73643;DHT22;61938;48.652;9.292;2022-12-15T00:16:04;-1.70;99.90
73643;DHT22;61938;48.652;9.292;2022-12-15T00:18:48;-1.70;99.90
73643;DHT22;61938;48.652;9.292;2022-12-15T00:21:32;-1.70;99.90
73643;DHT22;61938;48.652;9.292;2022-12-15T00:24:16;-1.70;99.90
73643;DHT22;61938;48.652;9.292;2022-12-15T00:27:00;-1.70;99.90
73643;DHT22;61938;48.652;9.292;2022-12-15T00:29:45;-1.70;99.90
73643;DHT22;61938;48.652;9.292;2022-12-15T00:32:29;-1.70;99.90
73643;DHT22;61938;48.652;9.292;2022-12-15T00:35:13;-1.70;99.90
73643;DHT22;61938;48.652;9.292;2022-12-15T00:37:57;-1.60;99.90
73643;DHT22;61938;48.652;9.292;2022-12-15T00:40:41;-1.70;99.90
73643;DHT22;61938;48.652;9.292;2022-12-15T00:43:07;-1.70;99.90
73643;DHT22;61938;48.652;9.292;2022-12-15T00:45:36;-1.70;99.90
73643;DHT22;61938;48.652;9.292;2022-12-15T00:48:20;-1.70;99.90
73643;DHT22;61938;48.652;9.292;2022-12-15T00:50:45;-1.70;99.90
73643;DHT22;61938;48.652;9.292;2022-12-15T00:53:21;-1.70;99.90
73643;DHT22;61938;48.652;9.292;2022-12-15T00:56:06;-1.70;99.90
73643;DHT22;61938;48.652;9.292;2022-12-15T00:58:51;-1.70;99.90
73643;DHT22;61938;48.652;9.292;2022-12-15T01:01:35;-1.70;99.90
73643;DHT22;61938;48.652;9.292;2022-12-15T01:04:19;-1.70;99.90
73643;DHT22;61938;48.652;9.292;2022-12-15T01:07:03;-1.70;99.90
73643;DHT22;61938;48.652;9.292;2022-12-15T01:09:47;-1.70;99.90
73643;DHT22;61938;48.652;9.292;2022-12-15T01:12:31;-1.70;99.90
73643;DHT22;61938;48.652;9.292;2022-12-15T01:15:15;-1.70;99.90
73643;DHT22;61938;48.652;9.292;2022-12-15T01:17:59;-1.70;99.90
73643;DHT22;61938;48.652;9.292;2022-12-15T01:20:43;-1.70;99.90
73643;DHT22;61938;48.652;9.292;2022-12-15T01:23:09;-1.70;99.90
73643;DHT22;61938;48.652;9.292;2022-12-15T01:25:37;-1.70;99.90
73643;DHT22;61938;48.652;9.292;2022-12-15T01:28:03;-1.70;99.90
73643;DHT22;61938;48.652;9.292;2022-12-15T01:30:28;-1.70;99.90
73643;DHT22;61938;48.652;9.292;2022-12-15T01:32:54;-1.70;99.90
73643;DHT22;61938;48.652;9.292;2022-12-15T01:35:20;-1.70;99.90
73643;DHT22;61938;48.652;9.292;2022-12-15T01:37:46;-1.70;99.90
73643;DHT22;61938;48.652;9.292;2022-12-15T01:40:14;-1.70;99.90
73643;DHT22;61938;48.652;9.292;2022-12-15T01:42:58;-1.70;99.90
73643;DHT22;61938;48.652;9.292;2022-12-15T01:47:59;-1.70;99.90
73643;DHT22;61938;48.652;9.292;2022-12-15T01:50:26;-1.70;99.90
73643;DHT22;61938;48.652;9.292;2022-12-15T01:52:53;-1.80;99.90
73643;DHT22;61938;48.652;9.292;2022-12-15T01:55:21;-1.70;99.90
73643;DHT22;61938;48.652;9.292;2022-12-15T01:57:51;-1.70;99.90
73643;DHT22;61938;48.652;9.292;2022-12-15T02:00:18;-1.70;99.90
73643;DHT22;61938;48.652;9.292;2022-12-15T02:02:43;-1.70;99.90
73643;DHT22;61938;48.652;9.292;2022-12-15T02:05:09;-1.70;99.90
73643;DHT22;61938;48.652;9.292;2022-12-15T02:07:35;-1.70;99.90
73643;DHT22;61938;48.652;9.292;2022-12-15T02:10:03;-1.70;99.90
73643;DHT22;61938;48.652;9.292;2022-12-15T02:12:46;-1.70;99.90
73643;DHT22;61938;48.652;9.292;2022-12-15T02:15:26;-1.70;99.90
73643;DHT22;61938;48.652;9.292;2022-12-15T02:20:35;-1.70;99.90
73643;DHT22;61938;48.652;9.292;2022-12-15T02:23:28;-1.70;99.90
73643;DHT22;61938;48.652;9.292;2022-12-15T02:31:54;-1.70;99.90
73643;DHT22;61938;48.652;9.292;2022-12-15T02:34:53;-1.70;99.90
73643;DHT22;61938;48.652;9.292;2022-12-15T02:37:33;-1.70;99.90
73643;DHT22;61938;48.652;9.292;2022-12-15T02:39:59;-1.70;99.90
73643;DHT22;61938;48.652;9.292;2022-12-15T02:42:27;-1.70;99.90
73643;DHT22;61938;48.652;9.292;2022-12-15T02:45:06;-1.70;99.90
73643;DHT22;61938;48.652;9.292;2022-12-15T02:56:16;-1.70;99.90
73643;DHT22;61938;48.652;9.292;2022-12-15T02:58:58;-1.70;99.90
73643;DHT22;61938;48.652;9.292;2022-12-15T03:01:33;-1.70;99.90
73643;DHT22;61938;48.652;9.292;2022-12-15T03:04:01;-1.70;99.90
73643;DHT22;61938;48.652;9.292;2022-12-15T03:06:28;-1.70;99.90
73643;DHT22;61938;48.652;9.292;2022-12-15T03:08:53;-1.70;99.90
73643;DHT22;61938;48.652;9.292;2022-12-15T03:11:19;-1.70;99.90
73643;DHT22;61938;48.652;9.292;2022-12-15T03:13:44;-1.60;99.90
73643;DHT22;61938;48.652;9.292;2022-12-15T03:16:10;-1.70;99.90
73643;DHT22;61938;48.652;9.292;2022-12-15T03:18:35;-1.70;99.90
73643;DHT22;61938;48.652;9.292;2022-12-15T03:21:01;-1.70;99.90
73643;DHT22;61938;48.652;9.292;2022-12-15T03:23:27;-1.70;99.90
73643;DHT22;61938;48.652;9.292;2022-12-15T03:25:52;-1.70;99.90
73643;DHT22;61938;48.652;9.292;2022-12-15T03:28:18;-1.70;99.90
73643;DHT22;61938;48.652;9.292;2022-12-15T03:30:44;-1.70;99.90
73643;DHT22;61938;48.652;9.292;2022-12-15T03:33:09;-1.60;99.90
73643;DHT22;61938;48.652;9.292;2022-12-15T03:35:35;-1.70;99.90
73643;DHT22;61938;48.652;9.292;2022-12-15T03:38:00;-1.70;99.90
73643;DHT22;61938;48.652;9.292;2022-12-15T03:40:26;-1.70;99.90
73643;DHT22;61938;48.652;9.292;2022-12-15T03:42:51;-1.70;99.90
73643;DHT22;61938;48.652;9.292;2022-12-15T03:45:27;-1.70;99.90
73643;DHT22;61938;48.652;9.292;2022-12-15T03:47:54;-1.70;99.90
73643;DHT22;61938;48.652;9.292;2022-12-15T03:50:23;-1.70;99.90
73643;DHT22;61938;48.652;9.292;2022-12-15T03:52:53;-1.70;99.90
73643;DHT22;61938;48.652;9.292;2022-12-15T03:55:20;-1.70;99.90
73643;DHT22;61938;48.652;9.292;2022-12-15T03:57:46;-1.70;99.90
73643;DHT22;61938;48.652;9.292;2022-12-15T04:00:12;-1.60;99.90
73643;DHT22;61938;48.652;9.292;2022-12-15T04:02:41;-1.70;99.90
73643;DHT22;61938;48.652;9.292;2022-12-15T04:05:07;-1.70;99.90
73643;DHT22;61938;48.652;9.292;2022-12-15T04:07:33;-1.70;99.90
73643;DHT22;61938;48.652;9.292;2022-12-15T04:09:58;-1.60;99.90
73643;DHT22;61938;48.652;9.292;2022-12-15T04:12:24;-1.70;99.90
73643;DHT22;61938;48.652;9.292;2022-12-15T04:14:49;-1.70;99.90
73643;DHT22;61938;48.652;9.292;2022-12-15T04:17:15;-1.70;99.90
73643;DHT22;61938;48.652;9.292;2022-12-15T04:19:40;-1.70;99.90
73643;DHT22;61938;48.652;9.292;2022-12-15T04:22:24;-1.80;99.90
73643;DHT22;61938;48.652;9.292;2022-12-15T04:24:50;-1.70;99.90
73643;DHT22;61938;48.652;9.292;2022-12-15T04:27:34;-1.70;99.90
73643;DHT22;61938;48.652;9.292;2022-12-15T04:30:18;-1.70;99.90
73643;DHT22;61938;48.652;9.292;2022-12-15T04:33:03;-1.70;99.90
73643;DHT22;61938;48.652;9.292;2022-12-15T04:35:47;-1.70;99.90
73643;DHT22;61938;48.652;9.292;2022-12-15T04:38:32;-1.70;99.90
73643;DHT22;61938;48.652;9.292;2022-12-15T04:41:18;-1.80;99.90
73643;DHT22;61938;48.652;9.292;2022-12-15T04:44:04;-1.70;99.90
73643;DHT22;61938;48.652;9.292;2022-12-15T04:46:48;-1.80;99.90
73643;DHT22;61938;48.652;9.292;2022-12-15T04:49:33;-1.80;99.90
73643;DHT22;61938;48.652;9.292;2022-12-15T04:52:17;-1.80;99.90
73643;DHT22;61938;48.652;9.292;2022-12-15T04:55:01;-1.70;99.90
73643;DHT22;61938;48.652;9.292;2022-12-15T04:57:45;-1.70;99.90
73643;DHT22;61938;48.652;9.292;2022-12-15T05:00:29;-1.80;99.90
73643;DHT22;61938;48.652;9.292;2022-12-15T05:03:13;-1.80;99.90
73643;DHT22;61938;48.652;9.292;2022-12-15T05:05:57;-1.70;99.90
73643;DHT22;61938;48.652;9.292;2022-12-15T05:08:41;-1.70;99.90
73643;DHT22;61938;48.652;9.292;2022-12-15T05:11:25;-1.80;99.90
73643;DHT22;61938;48.652;9.292;2022-12-15T05:14:09;-1.80;99.90
73643;DHT22;61938;48.652;9.292;2022-12-15T05:16:53;-1.80;99.90
73643;DHT22;61938;48.652;9.292;2022-12-15T05:19:38;-1.80;99.90
73643;DHT22;61938;48.652;9.292;2022-12-15T05:22:22;-1.80;99.90
73643;DHT22;61938;48.652;9.292;2022-12-15T05:25:06;-1.80;99.90
73643;DHT22;61938;48.652;9.292;2022-12-15T05:27:51;-1.80;99.90
73643;DHT22;61938;48.652;9.292;2022-12-15T05:30:35;-1.80;99.90
73643;DHT22;61938;48.652;9.292;2022-12-15T05:33:19;-1.80;99.90
73643;DHT22;61938;48.652;9.292;2022-12-15T05:35:44;-1.80;99.90
73643;DHT22;61938;48.652;9.292;2022-12-15T05:38:10;-1.80;99.90
73643;DHT22;61938;48.652;9.292;2022-12-15T05:40:35;-1.80;99.90
73643;DHT22;61938;48.652;9.292;2022-12-15T05:43:01;-1.70;99.90
73643;DHT22;61938;48.652;9.292;2022-12-15T05:45:27;-1.70;99.90
73643;DHT22;61938;48.652;9.292;2022-12-15T05:47:53;-1.70;99.90
73643;DHT22;61938;48.652;9.292;2022-12-15T05:50:20;-1.70;99.90
73643;DHT22;61938;48.652;9.292;2022-12-15T05:52:46;-1.70;99.90
73643;DHT22;61938;48.652;9.292;2022-12-15T05:55:11;-1.70;99.90
73643;DHT22;61938;48.652;9.292;2022-12-15T05:57:37;-1.70;99.90
73643;DHT22;61938;48.652;9.292;2022-12-15T06:00:04;-1.70;99.90
73643;DHT22;61938;48.652;9.292;2022-12-15T06:02:30;-1.70;99.90
73643;DHT22;61938;48.652;9.292;2022-12-15T06:04:56;-1.70;99.90
73643;DHT22;61938;48.652;9.292;2022-12-15T06:07:21;-1.70;99.90
73643;DHT22;61938;48.652;9.292;2022-12-15T06:09:47;-1.70;99.90
73643;DHT22;61938;48.652;9.292;2022-12-15T06:12:13;-1.70;99.90
73643;DHT22;61938;48.652;9.292;2022-12-15T06:14:38;-1.70;99.90
73643;DHT22;61938;48.652;9.292;2022-12-15T06:17:04;-1.70;99.90
73643;DHT22;61938;48.652;9.292;2022-12-15T06:19:29;-1.70;99.90
73643;DHT22;61938;48.652;9.292;2022-12-15T06:21:55;-1.70;99.90
73643;DHT22;61938;48.652;9.292;2022-12-15T06:24:20;-1.70;99.90
73643;DHT22;61938;48.652;9.292;2022-12-15T06:26:46;-1.70;99.90
73643;DHT22;61938;48.652;9.292;2022-12-15T06:29:12;-1.70;99.90
73643;DHT22;61938;48.652;9.292;2022-12-15T06:31:39;-1.70;99.90
73643;DHT22;61938;48.652;9.292;2022-12-15T06:34:06;-1.70;99.90
73643;DHT22;61938;48.652;9.292;2022-12-15T06:36:32;-1.60;99.90
73643;DHT22;61938;48.652;9.292;2022-12-15T06:39:03;-1.60;99.90
73643;DHT22;61938;48.652;9.292;2022-12-15T06:41:29;-1.60;99.90
73643;DHT22;61938;48.652;9.292;2022-12-15T06:43:55;-1.60;99.90
73643;DHT22;61938;48.652;9.292;2022-12-15T06:46:21;-1.60;99.90
73643;DHT22;61938;48.652;9.292;2022-12-15T06:48:47;-1.60;99.90
73643;DHT22;61938;48.652;9.292;2022-12-15T06:51:14;-1.60;99.90
73643;DHT22;61938;48.652;9.292;2022-12-15T06:53:40;-1.70;99.90
73643;DHT22;61938;48.652;9.292;2022-12-15T06:56:09;-1.60;99.90
73643;DHT22;61938;48.652;9.292;2022-12-15T06:58:38;-1.70;99.90
73643;DHT22;61938;48.652;9.292;2022-12-15T07:01:07;-1.70;99.90
73643;DHT22;61938;48.652;9.292;2022-12-15T07:03:33;-1.70;99.90
73643;DHT22;61938;48.652;9.292;2022-12-15T07:06:01;-1.70;99.90
73643;DHT22;61938;48.652;9.292;2022-12-15T07:08:28;-1.70;99.90
73643;DHT22;61938;48.652;9.292;2022-12-15T07:10:53;-1.70;99.90
73643;DHT22;61938;48.652;9.292;2022-12-15T07:13:19;-1.70;99.90
73643;DHT22;61938;48.652;9.292;2022-12-15T07:15:44;-1.70;99.90
73643;DHT22;61938;48.652;9.292;2022-12-15T07:18:10;-1.70;99.90
73643;DHT22;61938;48.652;9.292;2022-12-15T07:20:35;-1.70;99.90
73643;DHT22;61938;48.652;9.292;2022-12-15T07:23:01;-1.70;99.90
73643;DHT22;61938;48.652;9.292;2022-12-15T07:25:34;-1.70;99.90
73643;DHT22;61938;48.652;9.292;2022-12-15T07:27:59;-1.70;99.90
73643;DHT22;61938;48.652;9.292;2022-12-15T07:30:25;-1.60;99.90
73643;DHT22;61938;48.652;9.292;2022-12-15T07:32:51;-1.60;99.90
73643;DHT22;61938;48.652;9.292;2022-12-15T07:35:16;-1.70;99.90
73643;DHT22;61938;48.652;9.292;2022-12-15T07:37:42;-1.60;99.90
73643;DHT22;61938;48.652;9.292;2022-12-15T07:40:08;-1.60;99.90
73643;DHT22;61938;48.652;9.292;2022-12-15T07:42:34;-1.60;99.90
73643;DHT22;61938;48.652;9.292;2022-12-15T07:44:59;-1.60;99.90
73643;DHT22;61938;48.652;9.292;2022-12-15T07:47:25;-1.60;99.90
73643;DHT22;61938;48.652;9.292;2022-12-15T07:49:52;-1.50;99.90
73643;DHT22;61938;48.652;9.292;2022-12-15T07:52:19;-1.50;99.90
73643;DHT22;61938;48.652;9.292;2022-12-15T07:54:44;-1.40;99.90
73643;DHT22;61938;48.652;9.292;2022-12-15T07:57:10;-1.40;99.90
73643;DHT22;61938;48.652;9.292;2022-12-15T07:59:35;-1.40;99.90
73643;DHT22;61938;48.652;9.292;2022-12-15T08:02:01;-1.40;99.90
73643;DHT22;61938;48.652;9.292;2022-12-15T08:04:29;-1.40;99.90
73643;DHT22;61938;48.652;9.292;2022-12-15T08:06:54;-1.40;99.90
73643;DHT22;61938;48.652;9.292;2022-12-15T08:09:20;-1.30;99.90
73643;DHT22;61938;48.652;9.292;2022-12-15T08:11:46;-1.40;99.90
73643;DHT22;61938;48.652;9.292;2022-12-15T08:14:12;-1.30;99.90
73643;DHT22;61938;48.652;9.292;2022-12-15T08:16:38;-1.30;99.90
73643;DHT22;61938;48.652;9.292;2022-12-15T08:19:04;-1.30;99.90
73643;DHT22;61938;48.652;9.292;2022-12-15T08:21:30;-1.30;99.90
73643;DHT22;61938;48.652;9.292;2022-12-15T08:23:56;-1.20;99.90
73643;DHT22;61938;48.652;9.292;2022-12-15T08:26:22;-1.10;99.90
73643;DHT22;61938;48.652;9.292;2022-12-15T08:28:48;-1.10;99.90
73643;DHT22;61938;48.652;9.292;2022-12-15T08:31:22;-1.10;99.90
73643;DHT22;61938;48.652;9.292;2022-12-15T08:33:48;-1.00;99.90
73643;DHT22;61938;48.652;9.292;2022-12-15T08:36:15;-1.00;99.90
73643;DHT22;61938;48.652;9.292;2022-12-15T08:38:43;-1.00;99.90
73643;DHT22;61938;48.652;9.292;2022-12-15T08:41:18;-1.00;99.90
73643;DHT22;61938;48.652;9.292;2022-12-15T08:43:48;-0.90;99.90
73643;DHT22;61938;48.652;9.292;2022-12-15T08:46:18;-0.90;99.90
73643;DHT22;61938;48.652;9.292;2022-12-15T08:48:45;-0.90;99.90
73643;DHT22;61938;48.652;9.292;2022-12-15T08:51:11;-0.90;99.90
73643;DHT22;61938;48.652;9.292;2022-12-15T08:53:36;-1.00;99.90
73643;DHT22;61938;48.652;9.292;2022-12-15T08:56:08;-0.90;99.90
73643;DHT22;61938;48.652;9.292;2022-12-15T08:58:34;-0.90;99.90
73643;DHT22;61938;48.652;9.292;2022-12-15T09:01:06;-0.80;99.90
73643;DHT22;61938;48.652;9.292;2022-12-15T09:03:32;-0.80;99.90
73643;DHT22;61938;48.652;9.292;2022-12-15T09:06:06;-0.70;99.90
73643;DHT22;61938;48.652;9.292;2022-12-15T09:08:33;-0.70;99.90
73643;DHT22;61938;48.652;9.292;2022-12-15T09:10:59;-0.70;99.90
73643;DHT22;61938;48.652;9.292;2022-12-15T09:13:25;-0.60;99.90
73643;DHT22;61938;48.652;9.292;2022-12-15T09:16:05;-0.50;99.90
73643;DHT22;61938;48.652;9.292;2022-12-15T09:18:32;-0.40;99.90
73643;DHT22;61938;48.652;9.292;2022-12-15T09:21:03;-0.40;99.90
73643;DHT22;61938;48.652;9.292;2022-12-15T09:23:29;-0.20;99.90
73643;DHT22;61938;48.652;9.292;2022-12-15T09:26:02;-0.20;99.90
73643;DHT22;61938;48.652;9.292;2022-12-15T09:28:28;-0.10;99.90
73643;DHT22;61938;48.652;9.292;2022-12-15T09:31:00;0.00;99.90
73643;DHT22;61938;48.652;9.292;2022-12-15T09:33:26;0.00;99.90
73643;DHT22;61938;48.652;9.292;2022-12-15T09:35:51;0.10;99.90
73643;DHT22;61938;48.652;9.292;2022-12-15T09:38:18;0.10;99.90
73643;DHT22;61938;48.652;9.292;2022-12-15T09:40:44;0.10;99.90
73643;DHT22;61938;48.652;9.292;2022-12-15T09:43:15;0.20;99.90
73643;DHT22;61938;48.652;9.292;2022-12-15T09:45:48;0.20;99.90
73643;DHT22;61938;48.652;9.292;2022-12-15T09:48:21;0.20;99.90
73643;DHT22;61938;48.652;9.292;2022-12-15T09:50:51;0.30;99.90
73643;DHT22;61938;48.652;9.292;2022-12-15T09:53:18;0.20;99.90
73643;DHT22;61938;48.652;9.292;2022-12-15T09:55:47;0.30;99.90
73643;DHT22;61938;48.652;9.292;2022-12-15T10:01:37;0.30;99.90
73643;DHT22;61938;48.652;9.292;2022-12-15T10:06:49;0.20;99.90
73643;DHT22;61938;48.652;9.292;2022-12-15T10:09:21;0.20;99.90
73643;DHT22;61938;48.652;9.292;2022-12-15T10:12:22;0.30;99.90
73643;DHT22;61938;48.652;9.292;2022-12-15T10:20:34;0.30;99.90
73643;DHT22;61938;48.652;9.292;2022-12-15T10:22:40;0.30;99.90
73643;DHT22;61938;48.652;9.292;2022-12-15T10:25:21;0.30;99.90
73643;DHT22;61938;48.652;9.292;2022-12-15T10:30:55;0.40;99.90
73643;DHT22;61938;48.652;9.292;2022-12-15T10:33:24;0.40;99.90
73643;DHT22;61938;48.652;9.292;2022-12-15T10:35:53;0.40;99.90
73643;DHT22;61938;48.652;9.292;2022-12-15T10:38:38;0.40;99.90
73643;DHT22;61938;48.652;9.292;2022-12-15T10:41:11;0.40;99.90
73643;DHT22;61938;48.652;9.292;2022-12-15T10:43:41;0.30;99.90
73643;DHT22;61938;48.652;9.292;2022-12-15T10:48:34;0.30;99.90
73643;DHT22;61938;48.652;9.292;2022-12-15T10:53:50;0.30;99.90
73643;DHT22;61938;48.652;9.292;2022-12-15T10:56:21;0.40;99.90
73643;DHT22;61938;48.652;9.292;2022-12-15T10:58:50;0.40;99.90
73643;DHT22;61938;48.652;9.292;2022-12-15T11:01:28;0.50;99.90
73643;DHT22;61938;48.652;9.292;2022-12-15T11:03:54;0.50;99.90
73643;DHT22;61938;48.652;9.292;2022-12-15T11:06:27;0.50;99.90
73643;DHT22;61938;48.652;9.292;2022-12-15T11:08:56;0.50;99.90
73643;DHT22;61938;48.652;9.292;2022-12-15T11:11:27;0.40;99.90
73643;DHT22;61938;48.652;9.292;2022-12-15T11:14:14;0.50;99.90
73643;DHT22;61938;48.652;9.292;2022-12-15T11:16:55;0.60;99.90
73643;DHT22;61938;48.652;9.292;2022-12-15T11:22:15;0.60;99.90
73643;DHT22;61938;48.652;9.292;2022-12-15T11:24:53;0.60;99.90
73643;DHT22;61938;48.652;9.292;2022-12-15T11:27:35;0.50;99.90
73643;DHT22;61938;48.652;9.292;2022-12-15T11:30:10;0.60;99.90
73643;DHT22;61938;48.652;9.292;2022-12-15T11:32:40;0.60;99.90
73643;DHT22;61938;48.652;9.292;2022-12-15T11:35:13;0.70;99.90
73643;DHT22;61938;48.652;9.292;2022-12-15T11:37:44;0.70;99.90
73643;DHT22;61938;48.652;9.292;2022-12-15T11:43:26;0.70;99.90
73643;DHT22;61938;48.652;9.292;2022-12-15T11:51:45;0.70;99.90
73643;DHT22;61938;48.652;9.292;2022-12-15T11:54:16;0.90;99.90
73643;DHT22;61938;48.652;9.292;2022-12-15T11:56:53;0.80;99.90
73643;DHT22;61938;48.652;9.292;2022-12-15T12:00:16;0.90;99.90
73643;DHT22;61938;48.652;9.292;2022-12-15T12:02:24;0.90;99.90
73643;DHT22;61938;48.652;9.292;2022-12-15T12:05:06;0.90;99.90
73643;DHT22;61938;48.652;9.292;2022-12-15T12:07:46;0.90;99.90
73643;DHT22;61938;48.652;9.292;2022-12-15T12:10:30;0.80;99.90
73643;DHT22;61938;48.652;9.292;2022-12-15T12:15:53;0.80;99.90
73643;DHT22;61938;48.652;9.292;2022-12-15T12:18:29;0.90;99.90
73643;DHT22;61938;48.652;9.292;2022-12-15T12:21:15;1.00;99.90
73643;DHT22;61938;48.652;9.292;2022-12-15T12:24:49;1.00;99.90
73643;DHT22;61938;48.652;9.292;2022-12-15T12:29:32;1.10;99.90
73643;DHT22;61938;48.652;9.292;2022-12-15T12:32:09;1.10;99.90
73643;DHT22;61938;48.652;9.292;2022-12-15T12:35:00;1.10;99.90
73643;DHT22;61938;48.652;9.292;2022-12-15T12:37:36;1.20;99.90
73643;DHT22;61938;48.652;9.292;2022-12-15T12:42:59;1.40;99.90
73643;DHT22;61938;48.652;9.292;2022-12-15T12:45:32;1.50;99.90
73643;DHT22;61938;48.652;9.292;2022-12-15T12:49:10;1.50;99.90
73643;DHT22;61938;48.652;9.292;2022-12-15T12:51:23;1.50;99.90
73643;DHT22;61938;48.652;9.292;2022-12-15T12:53:50;1.40;99.90
73643;DHT22;61938;48.652;9.292;2022-12-15T12:56:33;1.30;99.90
73643;DHT22;61938;48.652;9.292;2022-12-15T12:59:00;1.30;99.90
73643;DHT22;61938;48.652;9.292;2022-12-15T13:01:33;1.10;99.90
73643;DHT22;61938;48.652;9.292;2022-12-15T13:04:36;1.00;99.90
73643;DHT22;61938;48.652;9.292;2022-12-15T13:07:04;1.00;99.90
73643;DHT22;61938;48.652;9.292;2022-12-15T13:10:11;0.90;99.90
73643;DHT22;61938;48.652;9.292;2022-12-15T13:12:52;0.80;99.90
73643;DHT22;61938;48.652;9.292;2022-12-15T13:15:37;0.80;99.90
73643;DHT22;61938;48.652;9.292;2022-12-15T13:18:06;0.80;99.90
73643;DHT22;61938;48.652;9.292;2022-12-15T13:20:36;0.80;99.90
73643;DHT22;61938;48.652;9.292;2022-12-15T13:38:58;0.60;99.90
73643;DHT22;61938;48.652;9.292;2022-12-15T13:41:25;0.50;99.90
73643;DHT22;61938;48.652;9.292;2022-12-15T13:43:52;0.50;99.90
73643;DHT22;61938;48.652;9.292;2022-12-15T13:46:31;0.60;99.90
73643;DHT22;61938;48.652;9.292;2022-12-15T13:49:05;0.50;99.90
73643;DHT22;61938;48.652;9.292;2022-12-15T13:51:35;0.50;99.90
73643;DHT22;61938;48.652;9.292;2022-12-15T14:01:58;0.50;99.90
73643;DHT22;61938;48.652;9.292;2022-12-15T14:04:23;0.50;99.90
73643;DHT22;61938;48.652;9.292;2022-12-15T14:06:53;0.50;99.90
73643;DHT22;61938;48.652;9.292;2022-12-15T14:09:23;0.60;99.90
73643;DHT22;61938;48.652;9.292;2022-12-15T14:11:50;0.50;99.90
73643;DHT22;61938;48.652;9.292;2022-12-15T14:14:22;0.60;99.90
73643;DHT22;61938;48.652;9.292;2022-12-15T14:16:55;0.50;99.90
73643;DHT22;61938;48.652;9.292;2022-12-15T14:19:21;0.50;99.90
73643;DHT22;61938;48.652;9.292;2022-12-15T14:21:57;0.50;99.90
73643;DHT22;61938;48.652;9.292;2022-12-15T14:24:32;0.50;99.90
73643;DHT22;61938;48.652;9.292;2022-12-15T14:26:58;0.30;99.90
73643;DHT22;61938;48.652;9.292;2022-12-15T14:29:24;0.30;99.90
73643;DHT22;61938;48.652;9.292;2022-12-15T14:31:53;0.30;99.90
73643;DHT22;61938;48.652;9.292;2022-12-15T14:34:31;0.30;99.90
73643;DHT22;61938;48.652;9.292;2022-12-15T14:37:00;0.30;99.90
73643;DHT22;61938;48.652;9.292;2022-12-15T14:39:38;0.30;99.90
73643;DHT22;61938;48.652;9.292;2022-12-15T14:42:07;0.30;99.90
73643;DHT22;61938;48.652;9.292;2022-12-15T14:44:42;0.30;99.90
73643;DHT22;61938;48.652;9.292;2022-12-15T14:47:21;0.40;99.90
73643;DHT22;61938;48.652;9.292;2022-12-15T14:49:48;0.30;99.90
73643;DHT22;61938;48.652;9.292;2022-12-15T14:52:30;0.30;99.90
73643;DHT22;61938;48.652;9.292;2022-12-15T14:55:02;0.30;99.90
73643;DHT22;61938;48.652;9.292;2022-12-15T14:57:42;0.30;99.90
73643;DHT22;61938;48.652;9.292;2022-12-15T15:00:27;0.30;99.90
73643;DHT22;61938;48.652;9.292;2022-12-15T15:05:46;0.30;99.90
73643;DHT22;61938;48.652;9.292;2022-12-15T15:08:49;0.30;99.90
73643;DHT22;61938;48.652;9.292;2022-12-15T15:11:30;0.30;99.90
73643;DHT22;61938;48.652;9.292;2022-12-15T15:14:28;0.30;99.90
73643;DHT22;61938;48.652;9.292;2022-12-15T15:17:07;0.30;99.90
73643;DHT22;61938;48.652;9.292;2022-12-15T15:19:48;0.20;99.90
73643;DHT22;61938;48.652;9.292;2022-12-15T15:22:33;0.20;99.90
73643;DHT22;61938;48.652;9.292;2022-12-15T15:24:59;0.20;99.90
73643;DHT22;61938;48.652;9.292;2022-12-15T15:27:37;0.20;99.90
73643;DHT22;61938;48.652;9.292;2022-12-15T15:30:16;0.20;99.90
73643;DHT22;61938;48.652;9.292;2022-12-15T15:32:53;0.20;99.90
73643;DHT22;61938;48.652;9.292;2022-12-15T15:35:20;0.20;99.90
73643;DHT22;61938;48.652;9.292;2022-12-15T15:37:46;0.20;99.90
73643;DHT22;61938;48.652;9.292;2022-12-15T15:40:12;0.20;99.90
73643;DHT22;61938;48.652;9.292;2022-12-15T15:42:40;0.20;99.90
73643;DHT22;61938;48.652;9.292;2022-12-15T15:45:12;0.20;99.90
73643;DHT22;61938;48.652;9.292;2022-12-15T15:47:40;0.20;99.90
73643;DHT22;61938;48.652;9.292;2022-12-15T15:50:11;0.30;99.90
73643;DHT22;61938;48.652;9.292;2022-12-15T15:52:37;0.20;99.90
73643;DHT22;61938;48.652;9.292;2022-12-15T15:55:03;0.30;99.90
73643;DHT22;61938;48.652;9.292;2022-12-15T15:57:29;0.30;99.90
73643;DHT22;61938;48.652;9.292;2022-12-15T15:59:54;0.30;99.90
73643;DHT22;61938;48.652;9.292;2022-12-15T16:02:21;0.30;99.90
73643;DHT22;61938;48.652;9.292;2022-12-15T16:04:46;0.30;99.90
73643;DHT22;61938;48.652;9.292;2022-12-15T16:07:24;0.30;99.90
73643;DHT22;61938;48.652;9.292;2022-12-15T16:09:51;0.30;99.90
73643;DHT22;61938;48.652;9.292;2022-12-15T16:12:25;0.20;99.90
73643;DHT22;61938;48.652;9.292;2022-12-15T16:14:53;0.20;99.90
73643;DHT22;61938;48.652;9.292;2022-12-15T16:17:18;0.20;99.90
73643;DHT22;61938;48.652;9.292;2022-12-15T16:19:44;0.20;99.90
73643;DHT22;61938;48.652;9.292;2022-12-15T16:22:18;0.20;99.90
73643;DHT22;61938;48.652;9.292;2022-12-15T16:24:45;0.10;99.90
73643;DHT22;61938;48.652;9.292;2022-12-15T16:27:11;0.20;99.90
73643;DHT22;61938;48.652;9.292;2022-12-15T16:29:37;0.20;99.90
73643;DHT22;61938;48.652;9.292;2022-12-15T16:32:04;0.20;99.90
73643;DHT22;61938;48.652;9.292;2022-12-15T16:34:30;0.10;99.90
73643;DHT22;61938;48.652;9.292;2022-12-15T16:36:55;0.10;99.90
73643;DHT22;61938;48.652;9.292;2022-12-15T16:39:27;0.10;99.90
73643;DHT22;61938;48.652;9.292;2022-12-15T16:41:54;0.00;99.90
73643;DHT22;61938;48.652;9.292;2022-12-15T16:44:20;0.10;99.90
73643;DHT22;61938;48.652;9.292;2022-12-15T16:46:45;0.10;99.90
73643;DHT22;61938;48.652;9.292;2022-12-15T16:49:11;0.10;99.90
73643;DHT22;61938;48.652;9.292;2022-12-15T16:51:45;0.10;99.90
73643;DHT22;61938;48.652;9.292;2022-12-15T16:54:19;0.00;99.90
73643;DHT22;61938;48.652;9.292;2022-12-15T16:56:45;0.10;99.90
73643;DHT22;61938;48.652;9.292;2022-12-15T16:59:16;0.10;99.90
73643;DHT22;61938;48.652;9.292;2022-12-15T17:01:41;0.10;99.90
73643;DHT22;61938;48.652;9.292;2022-12-15T17:04:07;0.00;99.90
73643;DHT22;61938;48.652;9.292;2022-12-15T17:06:33;0.00;99.90
73643;DHT22;61938;48.652;9.292;2022-12-15T17:08:58;0.10;99.90
73643;DHT22;61938;48.652;9.292;2022-12-15T17:11:26;0.10;99.90
73643;DHT22;61938;48.652;9.292;2022-12-15T17:13:55;0.00;99.90
73643;DHT22;61938;48.652;9.292;2022-12-15T17:16:22;0.00;99.90
73643;DHT22;61938;48.652;9.292;2022-12-15T17:18:48;0.00;99.90
73643;DHT22;61938;48.652;9.292;2022-12-15T17:21:27;0.00;99.90
73643;DHT22;61938;48.652;9.292;2022-12-15T17:24:04;0.00;99.90
73643;DHT22;61938;48.652;9.292;2022-12-15T17:26:33;0.00;99.90
73643;DHT22;61938;48.652;9.292;2022-12-15T17:29:04;0.00;99.90
73643;DHT22;61938;48.652;9.292;2022-12-15T17:31:30;0.00;99.90
73643;DHT22;61938;48.652;9.292;2022-12-15T17:33:56;0.00;99.90
73643;DHT22;61938;48.652;9.292;2022-12-15T17:36:24;0.00;99.90